createdAt,value
2018-04-17T00:03:06.548Z,13.17
2018-04-17T00:06:16.988Z,12.53
2018-04-17T00:09:27.957Z,10.10
2018-04-17T00:12:37.283Z,12.30
2018-04-17T00:15:46.738Z,12.47
2018-04-17T00:18:56.473Z,15.73
2018-04-17T00:22:06.569Z,15.90
2018-04-17T00:25:16.849Z,13.97
2018-04-17T00:28:26.883Z,12.83
2018-04-17T00:31:37.144Z,14.73
2018-04-17T00:34:46.500Z,13.30
2018-04-17T00:37:56.228Z,13.47
2018-04-17T00:41:06.087Z,11.93
2018-04-17T00:44:16.308Z,9.60
2018-04-17T00:47:26.189Z,13.27
2018-04-17T00:50:35.611Z,12.73
2018-04-17T00:53:52.819Z,15.97
2018-04-17T00:57:02.193Z,17.23
2018-04-17T01:00:11.527Z,20.80
2018-04-17T01:03:21.243Z,18.87
2018-04-17T01:06:31.757Z,21.10
2018-04-17T01:09:41.227Z,18.90
2018-04-17T01:12:51.110Z,12.83
2018-04-17T01:16:00.523Z,19.17
2018-04-17T01:19:10.164Z,19.37
2018-04-17T01:22:19.459Z,15.43
2018-04-17T01:25:28.937Z,18.20
2018-04-17T01:28:39.023Z,18.03
2018-04-17T01:31:48.530Z,18.33
2018-04-17T01:34:58.713Z,15.63
2018-04-17T01:38:08.221Z,15.40
2018-04-17T01:41:17.931Z,17.27
2018-04-17T01:44:28.167Z,17.60
2018-04-17T01:47:37.915Z,17.67
2018-04-17T01:50:48.099Z,14.13
2018-04-17T01:53:58.324Z,19.70
2018-04-17T01:57:07.976Z,20.30
2018-04-17T02:00:17.878Z,18.57
2018-04-17T02:03:28.814Z,14.57
2018-04-17T02:06:39.115Z,19.63
2018-04-17T02:09:48.520Z,18.73
2018-04-17T02:12:57.916Z,21.73
2018-04-17T02:16:07.304Z,22.47
2018-04-17T02:19:17.813Z,20.93
2018-04-17T02:22:27.591Z,20.67
2018-04-17T02:25:37.627Z,16.50
2018-04-17T02:28:47.074Z,20.93
2018-04-17T02:31:56.975Z,20.13
2018-04-17T02:35:07.975Z,17.60
2018-04-17T02:38:17.286Z,21.07
2018-04-17T02:41:26.747Z,18.07
2018-04-17T02:44:36.156Z,15.90
2018-04-17T02:47:46.782Z,22.90
2018-04-17T02:50:57.127Z,17.13
2018-04-17T02:54:06.564Z,21.27
2018-04-17T02:57:17.288Z,22.87
2018-04-17T03:00:26.974Z,23.50
2018-04-17T03:03:36.518Z,21.67
2018-04-17T03:06:46.107Z,22.37
2018-04-17T03:09:55.619Z,23.57
2018-04-17T03:13:05.899Z,25.47
2018-04-17T03:16:15.756Z,26.60
2018-04-17T03:19:25.964Z,24.37
2018-04-17T03:22:35.801Z,25.87
2018-04-17T03:25:46.055Z,24.83
2018-04-17T03:28:55.499Z,26.40
2018-04-17T03:32:05.639Z,27.57
2018-04-17T03:35:14.971Z,30.13
2018-04-17T03:38:24.896Z,26.03
2018-04-17T03:41:34.310Z,28.67
2018-04-17T03:44:44.179Z,26.63
2018-04-17T03:47:54.380Z,23.03
2018-04-17T03:51:04.273Z,25.70
2018-04-17T03:54:15.063Z,27.50
2018-04-17T03:57:25.763Z,21.30
2018-04-17T04:00:35.867Z,23.67
2018-04-17T04:03:45.336Z,25.50
2018-04-17T04:06:55.516Z,24.13
2018-04-17T04:10:05.811Z,39.53
2018-04-17T04:13:15.999Z,28.30
2018-04-17T04:16:44.004Z,27.23
2018-04-17T04:20:12.572Z,28.27
2018-04-17T04:23:40.680Z,22.67
2018-04-17T04:26:54.750Z,25.93
2018-04-17T04:30:07.368Z,29.10
2018-04-17T04:33:18.077Z,28.13
2018-04-17T04:36:28.779Z,31.10
2018-04-17T04:39:38.532Z,25.40
2018-04-17T04:42:48.747Z,21.90
2018-04-17T04:46:00.407Z,23.37
2018-04-17T04:49:10.015Z,29.37
2018-04-17T04:52:20.456Z,26.23
2018-04-17T04:55:29.791Z,29.60
2018-04-17T04:58:39.241Z,33.57
2018-04-17T05:01:49.096Z,32.13
2018-04-17T05:04:58.926Z,25.43
2018-04-17T05:08:08.655Z,26.47
2018-04-17T05:11:18.108Z,26.67
2018-04-17T05:14:28.784Z,23.67
2018-04-17T05:17:38.728Z,26.87
2018-04-17T05:20:48.207Z,26.97
2018-04-17T05:23:58.156Z,22.23
2018-04-17T05:27:07.628Z,28.70
2018-04-17T05:30:17.195Z,28.50
2018-04-17T05:33:27.291Z,28.90
2018-04-17T05:36:36.791Z,30.23
2018-04-17T05:39:48.060Z,31.03
2018-04-17T05:42:57.992Z,29.43
2018-04-17T05:46:08.111Z,28.27
2018-04-17T05:49:17.460Z,31.50
2018-04-17T05:52:26.885Z,29.90
2018-04-17T05:55:36.342Z,28.03
2018-04-17T05:58:46.441Z,28.67
2018-04-17T06:01:56.591Z,26.83
2018-04-17T06:05:05.943Z,25.97
2018-04-17T06:08:15.880Z,27.77
2018-04-17T06:11:26.091Z,27.13
2018-04-17T06:14:35.425Z,24.87
2018-04-17T06:17:45.791Z,25.50
2018-04-17T06:20:56.644Z,25.83
2018-04-17T06:24:06.025Z,23.07
2018-04-17T06:27:15.506Z,23.87
2018-04-17T06:30:25.735Z,24.10
2018-04-17T06:33:35.495Z,21.23
2018-04-17T06:36:45.775Z,22.73
2018-04-17T06:39:56.011Z,21.40
2018-04-17T06:43:05.914Z,21.30
2018-04-17T06:46:15.303Z,21.60
2018-04-17T06:49:26.120Z,21.80
2018-04-17T06:52:36.266Z,22.83
2018-04-17T06:55:45.706Z,24.30
2018-04-17T06:58:55.950Z,25.53
2018-04-17T07:02:05.905Z,25.40
2018-04-17T07:05:15.259Z,25.57
2018-04-17T07:08:25.099Z,24.97
2018-04-17T07:11:34.619Z,25.30
2018-04-17T07:14:43.989Z,25.90
2018-04-17T07:17:53.445Z,24.00
2018-04-17T07:21:03.336Z,26.50
2018-04-17T07:24:13.106Z,26.63
2018-04-17T07:27:22.588Z,24.80
2018-04-17T07:30:32.484Z,25.73
2018-04-17T07:33:42.800Z,26.13
2018-04-17T07:36:52.332Z,24.93
2018-04-17T07:40:01.928Z,24.40
2018-04-17T07:43:11.161Z,24.17
2018-04-17T07:46:20.903Z,24.83
2018-04-17T07:49:30.348Z,23.13
2018-04-17T07:52:39.743Z,22.83
2018-04-17T07:55:49.110Z,23.77
2018-04-17T07:58:59.132Z,24.30
2018-04-17T08:02:09.787Z,22.00
2018-04-17T08:05:19.620Z,21.80
2018-04-17T08:08:29.906Z,21.80
2018-04-17T08:11:39.986Z,20.93
2018-04-17T08:14:50.536Z,20.97
2018-04-17T08:18:00.299Z,21.87
2018-04-17T08:21:10.599Z,19.80
2018-04-17T08:24:20.675Z,19.77
2018-04-17T08:27:30.827Z,18.03
2018-04-17T08:30:40.175Z,17.70
2018-04-17T08:33:49.644Z,17.50
2018-04-17T08:36:59.773Z,17.63
2018-04-17T08:40:10.369Z,17.13
2018-04-17T08:43:19.600Z,15.60
2018-04-17T08:46:29.825Z,15.60
2018-04-17T08:49:39.303Z,15.17
2018-04-17T08:52:48.779Z,15.07
2018-04-17T08:55:58.200Z,15.57
2018-04-17T08:59:07.726Z,12.53
2018-04-17T09:02:17.735Z,13.13
2018-04-17T09:05:27.939Z,13.40
2018-04-17T09:08:37.323Z,12.00
2018-04-17T09:11:47.769Z,11.65
2018-04-17T09:14:57.031Z,12.47
2018-04-17T09:18:06.987Z,12.77
2018-04-17T09:21:17.089Z,12.65
2018-04-17T09:24:27.304Z,9.75
2018-04-17T09:27:36.676Z,9.77
2018-04-17T09:30:46.902Z,11.60
2018-04-17T09:33:57.581Z,10.95
2018-04-17T09:37:07.855Z,11.57
2018-04-17T09:40:18.171Z,11.63
2018-04-17T09:43:27.505Z,12.02
2018-04-17T09:46:37.196Z,12.98
2018-04-17T09:49:46.865Z,12.67
2018-04-17T09:52:56.387Z,10.40
2018-04-17T09:56:06.437Z,9.73
2018-04-17T09:59:16.343Z,9.33
2018-04-17T10:02:25.736Z,10.65
2018-04-17T10:05:35.291Z,10.70
2018-04-17T10:08:44.745Z,11.35
2018-04-17T10:11:54.717Z,8.43
2018-04-17T10:15:04.154Z,8.93
2018-04-17T10:18:13.595Z,8.60
2018-04-17T10:21:22.773Z,9.20
2018-04-17T10:24:33.483Z,9.50
2018-04-17T10:27:42.791Z,7.28
2018-04-17T10:30:52.101Z,8.38
2018-04-17T10:34:01.441Z,8.55
2018-04-17T10:37:11.418Z,9.20
2018-04-17T10:40:21.551Z,9.55
2018-04-17T10:43:31.368Z,9.02
2018-04-17T10:46:40.885Z,10.68
2018-04-17T10:49:51.211Z,10.10
2018-04-17T10:53:00.611Z,10.30
2018-04-17T10:56:09.929Z,10.23
2018-04-17T10:59:20.132Z,10.50
2018-04-17T11:02:30.457Z,10.57
2018-04-17T11:05:40.119Z,11.38
2018-04-17T11:08:50.336Z,9.32
2018-04-17T11:12:00.463Z,10.60
2018-04-17T11:15:09.802Z,10.50
2018-04-17T11:18:19.239Z,10.63
2018-04-17T11:21:28.751Z,11.40
2018-04-17T11:24:39.641Z,11.38
2018-04-17T11:27:49.003Z,10.40
2018-04-17T11:30:58.326Z,10.60
2018-04-17T11:34:08.588Z,11.23
2018-04-17T11:37:18.085Z,10.45
2018-04-17T11:40:27.627Z,11.15
2018-04-17T11:43:37.848Z,10.50
2018-04-17T11:46:47.243Z,10.63
2018-04-17T11:49:57.398Z,11.02
2018-04-17T11:53:06.863Z,11.50
2018-04-17T11:56:17.206Z,10.30
2018-04-17T11:59:26.892Z,10.30
2018-04-17T12:02:36.221Z,11.88
2018-04-17T12:05:45.559Z,9.98
2018-04-17T12:08:54.902Z,10.25
2018-04-17T12:12:05.163Z,11.70
2018-04-17T12:15:14.484Z,11.70
2018-04-17T12:18:24.572Z,10.20
2018-04-17T12:21:34.609Z,11.70
2018-04-17T12:24:43.957Z,11.98
2018-04-17T12:27:53.424Z,9.50
2018-04-17T12:31:02.763Z,10.13
2018-04-17T12:34:12.165Z,9.68
2018-04-17T12:37:21.576Z,10.68
2018-04-17T12:40:30.879Z,11.65
2018-04-17T12:43:40.371Z,9.13
2018-04-17T12:46:49.731Z,10.40
2018-04-17T12:49:59.247Z,10.93
2018-04-17T12:53:09.328Z,11.38
2018-04-17T12:56:18.700Z,10.80
2018-04-17T12:59:28.169Z,10.15
2018-04-17T13:02:37.611Z,9.60
2018-04-17T13:05:47.040Z,9.73
2018-04-17T13:08:56.367Z,9.55
2018-04-17T13:12:06.780Z,9.75
2018-04-17T13:15:16.292Z,10.27
2018-04-17T13:18:25.591Z,9.00
2018-04-17T13:21:35.040Z,9.75
2018-04-17T13:24:45.527Z,6.85
2018-04-17T13:27:55.413Z,8.80
2018-04-17T13:31:04.843Z,8.68
2018-04-17T13:34:15.047Z,8.07
2018-04-17T13:37:24.376Z,7.32
2018-04-17T13:40:33.750Z,8.95
2018-04-17T13:43:43.127Z,7.35
2018-04-17T13:46:52.844Z,8.18
2018-04-17T13:50:02.194Z,7.32
2018-04-17T13:53:11.791Z,6.20
2018-04-17T13:56:21.930Z,6.45
2018-04-17T13:59:31.256Z,7.68
2018-04-17T14:02:41.328Z,7.95
2018-04-17T14:05:50.777Z,6.95
2018-04-17T14:09:00.990Z,6.37
2018-04-17T14:12:10.375Z,8.15
2018-04-17T14:15:19.883Z,6.53
2018-04-17T14:18:29.867Z,8.20
2018-04-17T14:21:39.363Z,7.37
2018-04-17T14:24:49.553Z,7.30
2018-04-17T14:27:59.672Z,7.03
2018-04-17T14:31:08.955Z,7.22
2018-04-17T14:34:18.302Z,8.25
2018-04-17T14:37:28.033Z,8.48
2018-04-17T14:40:37.341Z,6.90
2018-04-17T14:43:46.820Z,5.57
2018-04-17T14:46:56.668Z,6.78
2018-04-17T14:50:06.523Z,7.93
2018-04-17T14:53:16.101Z,7.35
2018-04-17T14:56:25.981Z,8.27
2018-04-17T14:59:35.411Z,8.65
2018-04-17T15:02:44.888Z,8.45
2018-04-17T15:05:54.200Z,8.80
2018-04-17T15:09:03.677Z,6.90
2018-04-17T15:12:12.979Z,8.88
2018-04-17T15:15:22.327Z,7.15
2018-04-17T15:18:32.181Z,7.82
2018-04-17T15:21:41.516Z,8.20
2018-04-17T15:24:50.990Z,7.97
2018-04-17T15:28:00.863Z,7.30
2018-04-17T15:31:10.709Z,6.97
2018-04-17T15:34:20.027Z,7.75
2018-04-17T15:37:29.555Z,7.87
2018-04-17T15:40:39.671Z,6.80
2018-04-17T15:43:49.104Z,7.05
2018-04-17T15:46:59.035Z,6.65
2018-04-17T15:50:08.487Z,7.07
2018-04-17T15:53:18.217Z,7.45
2018-04-17T15:56:28.447Z,7.53
2018-04-17T15:59:37.911Z,7.90
2018-04-17T16:02:48.853Z,6.30
2018-04-17T16:05:59.061Z,6.60
2018-04-17T16:09:08.814Z,6.53
2018-04-17T16:12:18.170Z,7.50
2018-04-17T16:15:27.599Z,7.55
2018-04-17T16:18:36.915Z,6.95
2018-04-17T16:21:46.800Z,6.95
2018-04-17T16:24:56.300Z,7.20
2018-04-17T16:28:05.975Z,6.82
2018-04-17T16:31:15.420Z,7.00
2018-04-17T16:34:24.812Z,7.68
2018-04-17T16:37:34.892Z,5.85
2018-04-17T16:40:44.211Z,8.32
2018-04-17T16:43:53.676Z,7.57
2018-04-17T16:47:03.654Z,7.30
2018-04-17T16:50:13.453Z,6.78
2018-04-17T16:53:22.927Z,7.12
2018-04-17T16:56:32.808Z,6.68
2018-04-17T16:59:42.616Z,7.45
2018-04-17T17:02:52.821Z,7.12
2018-04-17T17:06:03.339Z,5.80
2018-04-17T17:09:13.263Z,5.53
2018-04-17T17:12:23.636Z,6.85
2018-04-17T17:15:33.309Z,5.65
2018-04-17T17:18:43.327Z,6.97
2018-04-17T17:21:52.956Z,5.45
2018-04-17T17:25:02.570Z,5.90
2018-04-17T17:28:12.996Z,8.88
2018-04-17T17:31:23.370Z,47.58
2018-04-17T17:34:33.173Z,6.32
2018-04-17T17:37:42.976Z,8.27
2018-04-17T17:40:52.428Z,7.80
2018-04-17T17:44:01.877Z,7.78
2018-04-17T17:47:11.341Z,6.72
2018-04-17T17:50:22.101Z,6.12
2018-04-17T17:53:31.407Z,7.00
2018-04-17T17:56:40.893Z,6.62
2018-04-17T17:59:51.125Z,7.30
2018-04-17T18:03:01.079Z,9.57
2018-04-17T18:06:10.484Z,6.03
2018-04-17T18:09:20.696Z,7.93
2018-04-17T18:12:30.173Z,6.93
2018-04-17T18:15:40.665Z,6.18
2018-04-17T18:18:50.165Z,7.00
2018-04-17T18:22:00.104Z,7.62
2018-04-17T18:25:10.288Z,6.12
2018-04-17T18:28:19.762Z,8.15
2018-04-17T18:31:30.175Z,9.15
2018-04-17T18:34:41.360Z,8.70
2018-04-17T18:37:50.975Z,7.05
2018-04-17T18:41:01.110Z,8.32
2018-04-17T18:44:10.488Z,7.45
2018-04-17T18:47:21.148Z,6.13
2018-04-17T18:50:31.065Z,6.78
2018-04-17T18:53:41.226Z,6.73
2018-04-17T18:56:51.315Z,6.20
2018-04-17T19:00:02.071Z,5.90
2018-04-17T19:03:12.609Z,6.03
2018-04-17T19:06:23.347Z,14.83
2018-04-17T19:09:34.781Z,10.48
2018-04-17T19:12:44.238Z,7.12
2018-04-17T19:15:56.036Z,7.43
2018-04-17T19:19:05.768Z,6.73
2018-04-17T19:22:15.075Z,6.50
2018-04-17T19:25:24.577Z,6.47
2018-04-17T19:28:36.309Z,7.97
2018-04-17T19:31:46.038Z,14.37
2018-04-17T19:35:12.543Z,8.65
2018-04-17T19:38:24.071Z,9.63
2018-04-17T19:41:33.879Z,7.93
2018-04-17T19:44:44.124Z,7.93
2018-04-17T19:47:54.435Z,7.53
2018-04-17T19:51:04.327Z,7.50
2018-04-17T19:54:13.779Z,9.40
2018-04-17T19:57:23.507Z,7.67
2018-04-17T20:00:33.759Z,9.90
2018-04-17T20:03:43.072Z,8.57
2018-04-17T20:06:53.353Z,9.67
2018-04-17T20:10:03.235Z,8.83
2018-04-17T20:13:13.492Z,8.37
2018-04-17T20:16:24.791Z,8.53
2018-04-17T20:19:35.034Z,9.10
2018-04-17T20:22:44.571Z,9.23
2018-04-17T20:25:54.432Z,8.10
2018-04-17T20:29:03.900Z,9.20
2018-04-17T20:32:13.810Z,9.40
2018-04-17T20:35:24.086Z,10.10
2018-04-17T20:38:34.464Z,10.73
2018-04-17T20:41:44.415Z,10.80
2018-04-17T20:44:55.062Z,9.30
2018-04-17T20:48:04.808Z,11.27
2018-04-17T20:51:14.614Z,10.77
2018-04-17T20:54:24.888Z,11.70
2018-04-17T20:57:35.073Z,11.70
2018-04-17T21:00:44.620Z,9.47
2018-04-17T21:03:54.155Z,11.50
2018-04-17T21:07:04.421Z,11.40
2018-04-17T21:10:13.862Z,9.57
2018-04-17T21:13:23.445Z,10.17
2018-04-17T21:16:34.169Z,10.37
2018-04-17T21:19:44.051Z,14.23
2018-04-17T21:22:53.493Z,12.30
2018-04-17T21:26:03.013Z,12.00
2018-04-17T21:29:12.751Z,12.97
2018-04-17T21:32:23.123Z,12.50
2018-04-17T21:35:33.291Z,12.97
2018-04-17T21:38:43.105Z,12.00
2018-04-17T21:41:53.337Z,10.40
2018-04-17T21:45:02.751Z,11.03
2018-04-17T21:48:12.931Z,12.53
2018-04-17T21:51:22.405Z,11.63
2018-04-17T21:54:32.703Z,10.83
2018-04-17T21:57:42.702Z,11.30
2018-04-17T22:00:52.994Z,11.03
2018-04-17T22:04:02.705Z,9.97
2018-04-17T22:07:12.658Z,11.93
2018-04-17T22:10:22.556Z,16.20
2018-04-17T22:13:32.135Z,13.57
2018-04-17T22:16:41.669Z,13.73
2018-04-17T22:19:52.313Z,13.20
2018-04-17T22:23:01.704Z,11.40
2018-04-17T22:26:11.610Z,11.83
2018-04-17T22:29:22.132Z,12.90
2018-04-17T22:32:32.444Z,11.40
2018-04-17T22:35:42.195Z,12.63
2018-04-17T22:38:52.035Z,14.10
2018-04-17T22:42:01.505Z,13.47
2018-04-17T22:45:11.508Z,13.27
2018-04-17T22:48:21.789Z,14.73
2018-04-17T22:51:32.320Z,10.33
2018-04-17T22:54:42.035Z,11.97
2018-04-17T22:57:52.311Z,11.83
2018-04-17T23:01:01.824Z,12.70
2018-04-17T23:04:11.383Z,14.63
2018-04-17T23:07:21.951Z,12.57
2018-04-17T23:10:32.207Z,12.50
2018-04-17T23:13:42.490Z,13.23
2018-04-17T23:16:52.344Z,11.27
2018-04-17T23:20:01.733Z,12.37
2018-04-17T23:23:11.923Z,12.60
2018-04-17T23:26:22.740Z,13.47
2018-04-17T23:29:32.259Z,16.63
2018-04-17T23:32:41.693Z,14.43
2018-04-17T23:35:51.320Z,13.83
2018-04-17T23:39:02.451Z,16.13
2018-04-17T23:42:11.943Z,16.67
2018-04-17T23:45:21.939Z,19.70
2018-04-17T23:48:31.339Z,14.07
2018-04-17T23:51:40.799Z,15.27
2018-04-17T23:54:50.199Z,17.90
2018-04-17T23:57:59.950Z,19.83
